»·PEaware :: N313PY KSAN-KLAS

N313PY :: KSAN-KLAS

FLIGHT INFORMATION

Flight Status: Arrived
Operator: Privately registered:
United States
More flights under this callsign
Pilot: Dean B. (20222)
Aircraft: CESSNA 510 CITATION MUSTANG
(C510)
More flights by this aircraft type
Origin: KSAN San Diego Intl-Lindbergh
United States
Destination: KLAS McCarran Intl
United States
More flights between these airports :: More routes between these airports
Route: +
File this flight plan on PilotEdge
Remarks:
Altitude:
(Current/Filed)
13,500ft
Speed:
(Current/Filed)
0kts
Departed: 13-Nov-19 09:21 PM
Arrived: 13-Nov-19 10:17 PM
Distance/Time
Traveled:
224nm/0:56
Distance/Time
To Go:
Arrived

Flight Plot

Page will automatically refresh every two minutes.


Map Options




Map Legend


Flown Route
Filed Route
Departure Airport
Arrival Airport
Navaid (VOR, NDB)
Fix

Horizontal Profiles

Position Reports

Time Latitude Longitude Heading Altitude Ground
Speed
13-Nov-19 21:09 32.734272 -117.185249 195 18ft 0kts
13-Nov-19 21:10 32.734272 -117.185249 195 18ft 0kts
13-Nov-19 21:11 32.734272 -117.185249 195 18ft 0kts
13-Nov-19 21:12 32.734272 -117.185249 195 18ft 0kts
13-Nov-19 21:13 32.733537 -117.184860 109 18ft 11kts
13-Nov-19 21:14 32.732407 -117.180170 106 19ft 12kts
13-Nov-19 21:15 32.731472 -117.176718 136 21ft 13kts
13-Nov-19 21:16 32.730994 -117.175574 132 22ft 0kts
13-Nov-19 21:17 32.730994 -117.175574 132 22ft 0kts
13-Nov-19 21:18 32.730994 -117.175574 132 22ft 0kts
13-Nov-19 21:19 32.730208 -117.175849 287 21ft 15kts
13-Nov-19 21:20 32.738614 -117.209640 293 907ft 169kts
13-Nov-19 21:21 32.762971 -117.256815 304 3481ft 158kts
13-Nov-19 21:22 32.788686 -117.299060 335 5740ft 157kts
13-Nov-19 21:23 32.823929 -117.272740 59 7624ft 173kts
13-Nov-19 21:24 32.829380 -117.216598 88 9621ft 164kts
13-Nov-19 21:25 32.826159 -117.160127 95 11511ft 181kts
13-Nov-19 21:26 32.860006 -117.116230 33 13452ft 196kts
13-Nov-19 21:27 32.914769 -117.080555 28 13478ft 233kts
13-Nov-19 21:28 32.971695 -117.046940 27 13473ft 224kts
13-Nov-19 21:29 33.030145 -117.012225 26 13490ft 263kts
13-Nov-19 21:30 33.101961 -116.969895 24 13477ft 305kts
13-Nov-19 21:31 33.177576 -116.925897 24 13476ft 306kts
13-Nov-19 21:32 33.253878 -116.881179 24 13481ft 306kts
13-Nov-19 21:33 33.330298 -116.836165 24 13476ft 305kts
13-Nov-19 21:34 33.405555 -116.791639 24 14431ft 297kts
13-Nov-19 21:35 33.479693 -116.747794 24 14431ft 301kts
13-Nov-19 21:36 33.555138 -116.703103 24 14417ft 303kts
13-Nov-19 21:37 33.630793 -116.658155 24 14408ft 303kts
13-Nov-19 21:38 33.706290 -116.613208 24 14407ft 303kts
13-Nov-19 21:39 33.781863 -116.568118 24 14409ft 303kts
13-Nov-19 21:40 33.857162 -116.523094 24 14408ft 303kts
13-Nov-19 21:41 33.932442 -116.478015 24 14408ft 303kts
13-Nov-19 21:42 34.007976 -116.432695 24 14408ft 303kts
13-Nov-19 21:43 34.083455 -116.387324 24 14411ft 303kts
13-Nov-19 21:44 34.159054 -116.341758 24 14458ft 302kts
13-Nov-19 21:45 34.234191 -116.296400 24 14494ft 302kts
13-Nov-19 21:46 34.309435 -116.250888 24 14499ft 303kts
13-Nov-19 21:47 34.384873 -116.205166 24 14500ft 303kts
13-Nov-19 21:48 34.460405 -116.159289 24 14499ft 303kts
13-Nov-19 21:49 34.535822 -116.113393 24 14499ft 303kts
13-Nov-19 21:50 34.611463 -116.067262 24 14499ft 303kts
13-Nov-19 21:51 34.686930 -116.021142 24 14499ft 303kts
13-Nov-19 21:52 34.762622 -115.974787 24 14499ft 303kts
13-Nov-19 21:53 34.837811 -115.928653 24 14527ft 303kts
13-Nov-19 21:54 34.913096 -115.882343 24 14540ft 303kts
13-Nov-19 21:55 34.988669 -115.835763 24 14527ft 306kts
13-Nov-19 21:56 35.065103 -115.788614 24 14523ft 309kts
13-Nov-19 21:57 35.142089 -115.740973 24 14522ft 310kts
13-Nov-19 21:58 35.219272 -115.693119 24 14517ft 310kts
13-Nov-19 21:59 35.296255 -115.645275 24 14519ft 310kts
13-Nov-19 22:00 35.373130 -115.597391 24 14519ft 310kts
13-Nov-19 22:01 35.450300 -115.549234 24 14519ft 311kts
13-Nov-19 22:02 35.525516 -115.502142 24 14442ft 283kts
13-Nov-19 22:03 35.594327 -115.458872 25 13371ft 276kts
13-Nov-19 22:04 35.662414 -115.416285 24 12292ft 272kts
13-Nov-19 22:05 35.729372 -115.374323 25 11301ft 270kts
13-Nov-19 22:06 35.796208 -115.332218 26 10303ft 269kts
13-Nov-19 22:07 35.862825 -115.290112 26 9281ft 270kts
13-Nov-19 22:09 35.929015 -115.253087 23 6964ft 233kts
13-Nov-19 22:10 35.982586 -115.223736 24 5624ft 207kts
13-Nov-19 22:11 36.032852 -115.186273 47 4998ft 231kts
13-Nov-19 22:12 36.070863 -115.132586 50 4592ft 211kts
13-Nov-19 22:13 36.107546 -115.080610 45 4571ft 206kts
13-Nov-19 22:14 36.142319 -115.097586 294 3937ft 156kts
13-Nov-19 22:15 36.131629 -115.138874 204 2952ft 139kts
13-Nov-19 22:16 36.099033 -115.156774 206 2150ft 121kts
13-Nov-19 22:17 36.082571 -115.166277 208 2153ft 9kts
13-Nov-19 22:18 36.083200 -115.168262 26 2160ft 11kts
13-Nov-19 22:19 36.085014 -115.167974 203 2155ft 11kts
13-Nov-19 22:20 36.082077 -115.169922 210 2166ft 8kts
13-Nov-19 22:21 36.081300 -115.171252 96 2170ft 0kts
13-Nov-19 22:22 36.081300 -115.171253 96 2170ft 0kts
13-Nov-19 22:23 36.081300 -115.171253 96 2170ft 0kts

Navigation Log

Ident Type
Flight plan parsing failed, navigation log unavailable